Time;durP1;ratioP1;P1;durP2;ratioP2;P2;SDS_P1;SDS_P2;PMS_P1;PMS_P2;Temp;Humidity;BMP_temperature;BMP_pressure;BME280_temperature;BME280_humidity;BME280_pressure;Samples;Min_cycle;Max_cycle;Signal;HPM_P1;HPM_P2
2023/12/26 00:01:32;;;;;;;;;;;;;;;;;;5112835;28;20483;-46
2023/12/26 00:03:58;;;;;;;;;;;;;;;;;;5113089;28;19973;-41
2023/12/26 00:06:24;;;;;;;;;;;;;;;;;;5113204;28;19974;-43
2023/12/26 00:08:50;;;;;;;;;;;;;;;;;;5113074;28;19931;-45
2023/12/26 00:11:17;;;;;;;;;;;;;;;;;;5112619;28;19928;-43
2023/12/26 00:13:43;;;;;;;;;;;;;;;;;;5113128;28;20001;-43
2023/12/26 00:16:09;;;;;;;;;;;;;;;;;;5112546;28;20279;-43
2023/12/26 00:18:35;;;;;;;;;;;;;;;;;;5112588;28;19988;-42
2023/12/26 00:21:02;;;;;;;;;;;;;;;;;;5112862;28;20422;-43
2023/12/26 00:23:28;;;;;;;;;;;;;;;;;;5114070;28;20511;-46
2023/12/26 00:25:54;;;;;;;;;;;;;;;;;;5116656;28;20071;-44
2023/12/26 00:28:20;;;;;;;;;;;;;;;;;;5115999;28;19972;-46
2023/12/26 00:30:47;;;;;;;;;;;;;;;;;;5116458;28;19977;-42
2023/12/26 00:33:13;;;;;;;;;;;;;;;;;;5116152;28;20267;-42
2023/12/26 00:35:39;;;;;;;;;;;;;;;;;;5116324;28;19928;-43
2023/12/26 00:38:05;;;;;;;;;;;;;;;;;;5116173;28;19924;-44
2023/12/26 00:40:31;;;;;;;;;;;;;;;;;;5116066;28;19985;-42
2023/12/26 00:42:58;;;;;;;;;;;;;;;;;;5116296;28;19974;-44
2023/12/26 00:45:25;;;;;;;;;;;;;;;;;;5115452;28;20425;-43
2023/12/26 00:47:51;;;;;;;;;;;;;;;;;;5116259;27;19924;-43
2023/12/26 00:50:17;;;;;;;;;;;;;;;;;;5116213;28;20351;-44
2023/12/26 00:52:43;;;;;;;;;;;;;;;;;;5116256;28;19959;-43
2023/12/26 00:55:09;;;;;;;;;;;;;;;;;;5115667;28;19923;-41
2023/12/26 00:57:36;;;;;;;;;;;;;;;;;;5115810;28;20306;-43
2023/12/26 01:00:04;;;;;;;;;;;;;;;;;;5115861;28;19923;-45
2023/12/26 01:02:30;;;;;;;;;;;;;;;;;;5115370;28;20322;-42
2023/12/26 01:04:56;;;;;;;;;;;;;;;;;;5115866;28;19977;-44
2023/12/26 01:07:22;;;;;;;;;;;;;;;;;;5115699;28;20261;-45
2023/12/26 01:09:49;;;;;;;;;;;;;;;;;;5115257;28;19924;-44
2023/12/26 01:12:15;;;;;;;;;;;;;;;;;;5115608;28;19923;-44
2023/12/26 01:14:41;;;;;;;;;;;;;;;;;;5115250;28;19927;-45
2023/12/26 01:17:07;;;;;;;;;;;;;;;;;;5115590;28;19928;-43
2023/12/26 01:19:33;;;;;;;;;;;;;;;;;;5115702;28;20371;-45
2023/12/26 01:22:00;;;;;;;;;;;;;;;;;;5115545;28;20359;-44
2023/12/26 01:24:26;;;;;;;;;;;;;;;;;;5114995;28;20322;-43
2023/12/26 01:26:52;;;;;;;;;;;;;;;;;;5115382;28;19985;-45
2023/12/26 01:29:18;;;;;;;;;;;;;;;;;;5114429;28;19988;-44
2023/12/26 01:31:44;;;;;;;;;;;;;;;;;;5115240;28;19997;-42
2023/12/26 01:34:11;;;;;;;;;;;;;;;;;;5114629;28;20366;-44
2023/12/26 01:36:37;;;;;;;;;;;;;;;;;;5114889;28;19931;-42
2023/12/26 01:39:05;;;;;;;;;;;;;;;;;;5114855;28;19993;-43
2023/12/26 01:41:31;;;;;;;;;;;;;;;;;;5115018;28;19923;-45
2023/12/26 01:43:57;;;;;;;;;;;;;;;;;;5115143;28;19924;-45
2023/12/26 01:46:23;;;;;;;;;;;;;;;;;;5114827;28;19935;-43
2023/12/26 01:48:50;;;;;;;;;;;;;;;;;;5115079;28;19973;-42
2023/12/26 01:51:16;;;;;;;;;;;;;;;;;;5115017;28;19973;-40
2023/12/26 01:53:42;;;;;;;;;;;;;;;;;;5115049;28;19928;-43
2023/12/26 01:56:09;;;;;;;;;;;;;;;;;;5114510;28;19935;-42
2023/12/26 01:58:35;;;;;;;;;;;;;;;;;;5114401;27;20325;-43
2023/12/26 02:01:01;;;;;;;;;;;;;;;;;;5114693;28;19982;-43
2023/12/26 02:03:28;;;;;;;;;;;;;;;;;;5114362;28;19972;-43
2023/12/26 02:05:54;;;;;;;;;;;;;;;;;;5114893;28;19924;-46
2023/12/26 02:08:20;;;;;;;;;;;;;;;;;;5114430;28;19924;-43
2023/12/26 02:10:46;;;;;;;;;;;;;;;;;;5114332;28;19924;-44
2023/12/26 02:13:13;;;;;;;;;;;;;;;;;;5114182;28;19972;-45
2023/12/26 02:15:39;;;;;;;;;;;;;;;;;;5114254;27;19931;-43
2023/12/26 02:18:05;;;;;;;;;;;;;;;;;;5114465;28;20408;-42
2023/12/26 02:20:31;;;;;;;;;;;;;;;;;;5114577;28;19924;-41
2023/12/26 02:22:57;;;;;;;;;;;;;;;;;;5113994;28;19950;-41
2023/12/26 02:25:26;;;;;;;;;;;;;;;;;;5113094;28;19931;-43
2023/12/26 02:27:52;;;;;;;;;;;;;;;;;;5113738;28;20351;-42
2023/12/26 02:30:18;;;;;;;;;;;;;;;;;;5113286;28;20339;-43
2023/12/26 02:32:46;;;;;;;;;;;;;;;;;;5113542;28;19977;-43
2023/12/26 02:35:12;;;;;;;;;;;;;;;;;;5113477;28;19931;-42
2023/12/26 02:37:38;;;;;;;;;;;;;;;;;;5113160;27;19973;-43
2023/12/26 02:40:04;;;;;;;;;;;;;;;;;;5113379;28;20405;-41
2023/12/26 02:42:30;;;;;;;;;;;;;;;;;;5113496;28;20360;-43
2023/12/26 02:44:57;;;;;;;;;;;;;;;;;;5113754;28;20405;-42
2023/12/26 02:47:23;;;;;;;;;;;;;;;;;;5113270;28;19928;-42
2023/12/26 02:49:49;;;;;;;;;;;;;;;;;;5114040;28;20526;-43
2023/12/26 02:52:16;;;;;;;;;;;;;;;;;;5113919;28;19969;-43
2023/12/26 02:54:42;;;;;;;;;;;;;;;;;;5113751;28;19924;-41
2023/12/26 02:57:08;;;;;;;;;;;;;;;;;;5113724;28;19924;-41
2023/12/26 02:59:34;;;;;;;;;;;;;;;;;;5113200;28;19966;-41
2023/12/26 03:02:00;;;;;;;;;;;;;;;;;;5113669;28;20417;-42
2023/12/26 03:04:26;;;;;;;;;;;;;;;;;;5112952;28;20317;-41
2023/12/26 03:06:53;;;;;;;;;;;;;;;;;;5113070;28;19992;-42
2023/12/26 03:09:19;;;;;;;;;;;;;;;;;;5112881;28;19945;-41
2023/12/26 03:11:45;;;;;;;;;;;;;;;;;;5113023;28;20329;-43
2023/12/26 03:14:13;;;;;;;;;;;;;;;;;;5113147;28;19924;-42
2023/12/26 03:16:39;;;;;;;;;;;;;;;;;;5113447;28;20020;-41
2023/12/26 03:19:06;;;;;;;;;;;;;;;;;;5113210;28;19973;-41
2023/12/26 03:21:32;;;;;;;;;;;;;;;;;;5113592;28;19928;-42
2023/12/26 03:23:58;;;;;;;;;;;;;;;;;;5113245;28;20367;-42
2023/12/26 03:26:24;;;;;;;;;;;;;;;;;;5113270;28;19931;-42
2023/12/26 03:28:50;;;;;;;;;;;;;;;;;;5113388;28;19924;-41
2023/12/26 03:31:17;;;;;;;;;;;;;;;;;;5113362;28;20440;-43
2023/12/26 03:33:43;;;;;;;;;;;;;;;;;;5112958;28;19931;-44
2023/12/26 03:36:09;;;;;;;;;;;;;;;;;;5113328;28;19924;-43
2023/12/26 03:38:35;;;;;;;;;;;;;;;;;;5112488;28;19931;-41
2023/12/26 03:41:02;;;;;;;;;;;;;;;;;;5112882;28;19946;-41
2023/12/26 03:43:28;;;;;;;;;;;;;;;;;;5113026;28;19981;-42
2023/12/26 03:45:54;;;;;;;;;;;;;;;;;;5113160;28;19924;-42
2023/12/26 03:48:20;;;;;;;;;;;;;;;;;;5113374;28;20359;-43
2023/12/26 03:50:46;;;;;;;;;;;;;;;;;;5113306;28;20047;-42
2023/12/26 03:53:13;;;;;;;;;;;;;;;;;;5113109;28;19973;-42
2023/12/26 03:55:40;;;;;;;;;;;;;;;;;;5113150;28;19928;-43
2023/12/26 03:58:06;;;;;;;;;;;;;;;;;;5114411;28;19924;-41
2023/12/26 04:00:32;;;;;;;;;;;;;;;;;;5116374;28;19924;-43
2023/12/26 04:02:58;;;;;;;;;;;;;;;;;;5116813;28;20268;-43
2023/12/26 04:05:25;;;;;;;;;;;;;;;;;;5117055;28;20015;-43
2023/12/26 04:07:51;;;;;;;;;;;;;;;;;;5117008;28;19969;-40
2023/12/26 04:10:17;;;;;;;;;;;;;;;;;;5116775;27;19973;-43
2023/12/26 04:12:43;;;;;;;;;;;;;;;;;;5116995;28;19924;-44
2023/12/26 04:15:09;;;;;;;;;;;;;;;;;;5116520;28;19927;-42
2023/12/26 04:17:35;;;;;;;;;;;;;;;;;;5117018;28;20420;-45
2023/12/26 04:20:02;;;;;;;;;;;;;;;;;;5116755;28;20343;-42
2023/12/26 04:22:28;;;;;;;;;;;;;;;;;;5116623;28;19933;-44
2023/12/26 04:24:55;;;;;;;;;;;;;;;;;;5116478;28;19950;-42
2023/12/26 04:27:22;;;;;;;;;;;;;;;;;;5116313;28;20356;-42
2023/12/26 04:29:48;;;;;;;;;;;;;;;;;;5115269;28;19930;-46
2023/12/26 04:32:14;;;;;;;;;;;;;;;;;;5115701;28;19924;-42
2023/12/26 04:34:40;;;;;;;;;;;;;;;;;;5114963;27;20349;-42
2023/12/26 04:37:06;;;;;;;;;;;;;;;;;;5115238;28;19931;-43
2023/12/26 04:39:32;;;;;;;;;;;;;;;;;;5115463;28;19989;-41
2023/12/26 04:41:59;;;;;;;;;;;;;;;;;;5116390;28;19924;-43
2023/12/26 04:44:25;;;;;;;;;;;;;;;;;;5115483;28;19924;-41
2023/12/26 04:46:51;;;;;;;;;;;;;;;;;;5116168;28;19953;-44
2023/12/26 04:49:17;;;;;;;;;;;;;;;;;;5116127;28;19923;-41
2023/12/26 04:51:43;;;;;;;;;;;;;;;;;;5115771;28;20398;-42
2023/12/26 04:54:09;;;;;;;;;;;;;;;;;;5116041;28;19963;-42
2023/12/26 04:56:36;;;;;;;;;;;;;;;;;;5115816;28;19947;-41
2023/12/26 04:59:03;;;;;;;;;;;;;;;;;;5115763;28;19948;-41
2023/12/26 05:01:29;;;;;;;;;;;;;;;;;;5115583;28;19928;-42
2023/12/26 05:03:55;;;;;;;;;;;;;;;;;;5114661;28;19949;-41
2023/12/26 05:06:21;;;;;;;;;;;;;;;;;;5115769;28;19931;-44
2023/12/26 05:08:48;;;;;;;;;;;;;;;;;;5115689;28;19973;-42
2023/12/26 05:11:14;;;;;;;;;;;;;;;;;;5115536;28;19927;-43
2023/12/26 05:13:40;;;;;;;;;;;;;;;;;;5115758;28;19928;-41
2023/12/26 05:16:08;;;;;;;;;;;;;;;;;;5115529;28;19976;-42
2023/12/26 05:18:34;;;;;;;;;;;;;;;;;;5115858;28;19923;-42
2023/12/26 05:21:00;;;;;;;;;;;;;;;;;;5115378;28;20401;-45
2023/12/26 05:23:27;;;;;;;;;;;;;;;;;;5114975;28;20256;-43
2023/12/26 05:25:53;;;;;;;;;;;;;;;;;;5115464;28;19989;-42
2023/12/26 05:28:26;;;;;;;;;;;;;;;;;;5115330;28;19924;-44
2023/12/26 05:30:52;;;;;;;;;;;;;;;;;;5114720;28;19924;-42
2023/12/26 05:33:19;;;;;;;;;;;;;;;;;;5115329;28;19932;-41
2023/12/26 05:35:45;;;;;;;;;;;;;;;;;;5114924;28;19923;-43
2023/12/26 05:38:11;;;;;;;;;;;;;;;;;;5113567;28;20420;-42
2023/12/26 05:40:40;;;;;;;;;;;;;;;;;;5115019;28;20008;-42
2023/12/26 05:43:06;;;;;;;;;;;;;;;;;;5115283;28;19924;-40
2023/12/26 05:45:32;;;;;;;;;;;;;;;;;;5114648;28;19969;-45
2023/12/26 05:47:58;;;;;;;;;;;;;;;;;;5114973;28;19931;-43
2023/12/26 05:50:24;;;;;;;;;;;;;;;;;;5114956;28;20355;-42
2023/12/26 05:52:51;;;;;;;;;;;;;;;;;;5114971;28;19932;-43
2023/12/26 05:55:17;;;;;;;;;;;;;;;;;;5114831;28;19924;-42
2023/12/26 05:57:45;;;;;;;;;;;;;;;;;;5114191;28;21199;-43
2023/12/26 06:00:11;;;;;;;;;;;;;;;;;;5114567;28;20403;-41
2023/12/26 06:02:37;;;;;;;;;;;;;;;;;;5114647;28;19924;-41
2023/12/26 06:05:03;;;;;;;;;;;;;;;;;;5114245;28;19924;-43
2023/12/26 06:07:29;;;;;;;;;;;;;;;;;;5114653;28;19928;-42
2023/12/26 06:09:55;;;;;;;;;;;;;;;;;;5114441;28;19923;-44
2023/12/26 06:12:22;;;;;;;;;;;;;;;;;;5114719;28;20665;-43
2023/12/26 06:14:48;;;;;;;;;;;;;;;;;;5114247;28;19935;-41
2023/12/26 06:17:14;;;;;;;;;;;;;;;;;;5114112;28;20333;-43
2023/12/26 06:19:40;;;;;;;;;;;;;;;;;;5113992;28;20283;-42
2023/12/26 06:22:07;;;;;;;;;;;;;;;;;;5113857;28;19924;-42
2023/12/26 06:24:33;;;;;;;;;;;;;;;;;;5114109;28;19981;-43
2023/12/26 06:26:59;;;;;;;;;;;;;;;;;;5114336;28;19924;-43
2023/12/26 06:29:26;;;;;;;;;;;;;;;;;;5113942;28;19928;-41
2023/12/26 06:31:52;;;;;;;;;;;;;;;;;;5114120;28;19950;-42
2023/12/26 06:34:18;;;;;;;;;;;;;;;;;;5113899;28;19924;-44
2023/12/26 06:36:44;;;;;;;;;;;;;;;;;;5114151;28;19974;-42
2023/12/26 06:39:12;;;;;;;;;;;;;;;;;;5113268;28;19924;-42
2023/12/26 06:41:39;;;;;;;;;;;;;;;;;;5113976;28;19924;-43
2023/12/26 06:44:06;;;;;;;;;;;;;;;;;;5113863;28;19928;-42
2023/12/26 06:46:32;;;;;;;;;;;;;;;;;;5113487;28;20155;-43
2023/12/26 06:48:58;;;;;;;;;;;;;;;;;;5113512;28;19952;-44
2023/12/26 06:51:24;;;;;;;;;;;;;;;;;;5113750;28;19924;-42
2023/12/26 06:53:51;;;;;;;;;;;;;;;;;;5113848;28;19989;-43
2023/12/26 06:56:17;;;;;;;;;;;;;;;;;;5113791;28;19931;-43
2023/12/26 06:58:43;;;;;;;;;;;;;;;;;;5113912;28;19924;-42
2023/12/26 07:01:10;;;;;;;;;;;;;;;;;;5113515;28;19924;-45
2023/12/26 07:03:36;;;;;;;;;;;;;;;;;;5113834;28;19924;-45
2023/12/26 07:06:02;;;;;;;;;;;;;;;;;;5113236;28;19927;-44
2023/12/26 07:08:28;;;;;;;;;;;;;;;;;;5113812;28;19930;-44
2023/12/26 07:10:54;;;;;;;;;;;;;;;;;;5113560;28;19924;-43
2023/12/26 07:13:21;;;;;;;;;;;;;;;;;;5113590;28;19969;-45
2023/12/26 07:15:47;;;;;;;;;;;;;;;;;;5113227;28;20330;-43
2023/12/26 07:18:13;;;;;;;;;;;;;;;;;;5113533;28;19924;-43
2023/12/26 07:20:40;;;;;;;;;;;;;;;;;;5113186;28;20278;-42
2023/12/26 07:23:07;;;;;;;;;;;;;;;;;;5113459;28;19923;-42
2023/12/26 07:25:34;;;;;;;;;;;;;;;;;;5113252;28;19969;-41
2023/12/26 07:28:00;;;;;;;;;;;;;;;;;;5113534;28;19928;-42
2023/12/26 07:30:26;;;;;;;;;;;;;;;;;;5113534;28;19924;-42
2023/12/26 07:32:52;;;;;;;;;;;;;;;;;;5114221;28;20286;-47
2023/12/26 07:35:18;;;;;;;;;;;;;;;;;;5117182;28;19927;-43
2023/12/26 07:37:45;;;;;;;;;;;;;;;;;;5117649;28;19924;-45
2023/12/26 07:40:11;;;;;;;;;;;;;;;;;;5116830;28;19977;-42
2023/12/26 07:42:37;;;;;;;;;;;;;;;;;;5117621;28;19945;-42
2023/12/26 07:45:04;;;;;;;;;;;;;;;;;;5116840;28;20090;-42
2023/12/26 07:47:30;;;;;;;;;;;;;;;;;;5117249;28;20014;-42
2023/12/26 07:49:56;;;;;;;;;;;;;;;;;;5117288;28;19970;-42
2023/12/26 07:52:22;;;;;;;;;;;;;;;;;;5117261;28;19938;-44
2023/12/26 07:54:49;;;;;;;;;;;;;;;;;;5116990;28;19985;-42
2023/12/26 07:57:15;;;;;;;;;;;;;;;;;;5117270;28;20348;-44
2023/12/26 07:59:41;;;;;;;;;;;;;;;;;;5117170;28;19931;-42
2023/12/26 08:02:07;;;;;;;;;;;;;;;;;;5117041;28;19931;-43
2023/12/26 08:04:33;;;;;;;;;;;;;;;;;;5117173;28;19996;-42
2023/12/26 08:06:59;;;;;;;;;;;;;;;;;;5116761;28;20413;-44
2023/12/26 08:09:25;;;;;;;;;;;;;;;;;;5116012;28;19928;-43
2023/12/26 08:11:52;;;;;;;;;;;;;;;;;;5116599;28;19928;-43
2023/12/26 08:14:18;;;;;;;;;;;;;;;;;;5116074;28;20359;-42
2023/12/26 08:16:45;;;;;;;;;;;;;;;;;;5116096;28;19927;-42
2023/12/26 08:19:11;;;;;;;;;;;;;;;;;;5116127;28;19928;-42
2023/12/26 08:21:37;;;;;;;;;;;;;;;;;;5115834;28;20317;-45
2023/12/26 08:24:04;;;;;;;;;;;;;;;;;;5115891;28;19988;-41
2023/12/26 08:26:30;;;;;;;;;;;;;;;;;;5115961;28;19924;-46
2023/12/26 08:28:56;;;;;;;;;;;;;;;;;;5116598;28;19928;-42
2023/12/26 08:31:23;;;;;;;;;;;;;;;;;;5116052;28;19927;-41
2023/12/26 08:33:49;;;;;;;;;;;;;;;;;;5116562;28;19931;-41
2023/12/26 08:36:16;;;;;;;;;;;;;;;;;;5116050;28;20633;-43
2023/12/26 08:38:43;;;;;;;;;;;;;;;;;;5116476;28;19976;-44
2023/12/26 08:41:11;;;;;;;;;;;;;;;;;;5115536;27;19928;-42
2023/12/26 08:43:38;;;;;;;;;;;;;;;;;;5115611;28;19986;-42
2023/12/26 08:46:04;;;;;;;;;;;;;;;;;;5115523;28;19946;-45
2023/12/26 08:48:30;;;;;;;;;;;;;;;;;;5116131;28;20261;-41
2023/12/26 08:50:57;;;;;;;;;;;;;;;;;;5115532;28;19947;-44
2023/12/26 08:53:23;;;;;;;;;;;;;;;;;;5116077;28;19985;-42
2023/12/26 08:55:49;;;;;;;;;;;;;;;;;;5115796;27;19923;-45
2023/12/26 08:58:15;;;;;;;;;;;;;;;;;;5116232;28;19972;-44
2023/12/26 09:00:41;;;;;;;;;;;;;;;;;;5116030;28;19928;-43
2023/12/26 09:03:08;;;;;;;;;;;;;;;;;;5115953;27;19923;-44
2023/12/26 09:05:34;;;;;;;;;;;;;;;;;;5115959;28;20363;-42
2023/12/26 09:08:01;;;;;;;;;;;;;;;;;;5115987;28;19935;-41
2023/12/26 09:10:27;;;;;;;;;;;;;;;;;;5115158;28;19923;-41
2023/12/26 09:12:53;;;;;;;;;;;;;;;;;;5115687;28;19932;-41
2023/12/26 09:15:20;;;;;;;;;;;;;;;;;;5114871;28;20392;-42
2023/12/26 09:17:46;;;;;;;;;;;;;;;;;;5115443;28;20245;-44
2023/12/26 09:20:12;;;;;;;;;;;;;;;;;;5115400;28;20375;-44
2023/12/26 09:22:38;;;;;;;;;;;;;;;;;;5115515;28;20371;-41
2023/12/26 09:25:07;;;;;;;;;;;;;;;;;;5115417;28;19972;-45
2023/12/26 09:27:33;;;;;;;;;;;;;;;;;;5115283;28;20360;-45
2023/12/26 09:29:59;;;;;;;;;;;;;;;;;;5115553;28;19923;-43
2023/12/26 09:32:26;;;;;;;;;;;;;;;;;;5115232;28;19984;-47
2023/12/26 09:34:52;;;;;;;;;;;;;;;;;;5114891;28;19934;-42
2023/12/26 09:37:18;;;;;;;;;;;;;;;;;;5114438;28;20347;-45
2023/12/26 09:39:44;;;;;;;;;;;;;;;;;;5114060;28;20377;-44
2023/12/26 09:42:11;;;;;;;;;;;;;;;;;;5114521;27;19927;-45
2023/12/26 09:44:38;;;;;;;;;;;;;;;;;;5114008;28;19931;-43
2023/12/26 09:47:04;;;;;;;;;;;;;;;;;;5114699;28;19927;-43
2023/12/26 09:49:30;;;;;;;;;;;;;;;;;;5114745;28;20312;-45
2023/12/26 09:51:58;;;;;;;;;;;;;;;;;;5115026;28;19924;-42
2023/12/26 09:54:25;;;;;;;;;;;;;;;;;;5114930;28;19969;-46
2023/12/26 09:56:51;;;;;;;;;;;;;;;;;;5114126;28;19923;-45
2023/12/26 09:59:17;;;;;;;;;;;;;;;;;;5114737;28;19924;-43
2023/12/26 10:01:44;;;;;;;;;;;;;;;;;;5114741;28;20460;-43
2023/12/26 10:04:10;;;;;;;;;;;;;;;;;;5114807;28;20364;-43
2023/12/26 10:06:36;;;;;;;;;;;;;;;;;;5114683;28;19924;-43
2023/12/26 10:09:03;;;;;;;;;;;;;;;;;;5113695;28;19927;-43
2023/12/26 10:11:29;;;;;;;;;;;;;;;;;;5113850;28;19928;-43
2023/12/26 10:13:56;;;;;;;;;;;;;;;;;;5114422;28;19924;-45
2023/12/26 10:16:23;;;;;;;;;;;;;;;;;;5114038;28;19973;-43
2023/12/26 10:18:50;;;;;;;;;;;;;;;;;;5114131;28;19924;-46
2023/12/26 10:21:18;;;;;;;;;;;;;;;;;;5114434;28;19928;-43
2023/12/26 10:23:44;;;;;;;;;;;;;;;;;;5114200;28;19928;-45
2023/12/26 10:26:10;;;;;;;;;;;;;;;;;;5114269;28;19923;-44
2023/12/26 10:28:38;;;;;;;;;;;;;;;;;;5114105;28;19992;-43
2023/12/26 10:31:04;;;;;;;;;;;;;;;;;;5112620;28;19932;-44
2023/12/26 10:33:30;;;;;;;;;;;;;;;;;;5114284;28;19973;-45
2023/12/26 10:35:56;;;;;;;;;;;;;;;;;;5114185;28;19923;-43
2023/12/26 10:38:23;;;;;;;;;;;;;;;;;;5113965;28;19924;-45
2023/12/26 10:40:49;;;;;;;;;;;;;;;;;;5113327;28;19927;-43
2023/12/26 10:43:15;;;;;;;;;;;;;;;;;;5113793;28;19928;-44
2023/12/26 10:45:41;;;;;;;;;;;;;;;;;;5112875;28;19927;-45
2023/12/26 10:48:07;;;;;;;;;;;;;;;;;;5113744;28;19923;-45
2023/12/26 10:50:34;;;;;;;;;;;;;;;;;;5113748;28;19954;-44
2023/12/26 10:53:00;;;;;;;;;;;;;;;;;;5114019;28;19927;-44
2023/12/26 10:55:26;;;;;;;;;;;;;;;;;;5113856;28;19981;-41
2023/12/26 10:57:52;;;;;;;;;;;;;;;;;;5113919;28;20309;-45
2023/12/26 11:00:18;;;;;;;;;;;;;;;;;;5113863;28;20408;-43
2023/12/26 11:02:44;;;;;;;;;;;;;;;;;;5113717;28;19927;-45
2023/12/26 11:05:11;;;;;;;;;;;;;;;;;;5113766;28;19927;-41
2023/12/26 11:07:37;;;;;;;;;;;;;;;;;;5113258;28;20018;-43
2023/12/26 11:10:03;;;;;;;;;;;;;;;;;;5113289;28;20421;-43
2023/12/26 11:12:29;;;;;;;;;;;;;;;;;;5113663;28;19924;-47
2023/12/26 11:14:56;;;;;;;;;;;;;;;;;;5113225;28;20359;-46
2023/12/26 11:17:22;;;;;;;;;;;;;;;;;;5113577;28;19949;-42
2023/12/26 11:19:48;;;;;;;;;;;;;;;;;;5113628;28;20351;-45
2023/12/26 11:22:14;;;;;;;;;;;;;;;;;;5113493;28;19927;-44
2023/12/26 11:24:40;;;;;;;;;;;;;;;;;;5113462;28;20327;-44
2023/12/26 11:27:09;;;;;;;;;;;;;;;;;;5113524;28;19930;-43
2023/12/26 11:29:35;;;;;;;;;;;;;;;;;;5113633;28;19923;-43
2023/12/26 11:32:02;;;;;;;;;;;;;;;;;;5113570;28;19936;-44
2023/12/26 11:34:28;;;;;;;;;;;;;;;;;;5113446;28;19973;-45
2023/12/26 11:36:54;;;;;;;;;;;;;;;;;;5113178;28;19932;-46
2023/12/26 11:39:20;;;;;;;;;;;;;;;;;;5112627;28;19976;-42
2023/12/26 11:41:46;;;;;;;;;;;;;;;;;;5112416;28;19932;-43
2023/12/26 11:44:12;;;;;;;;;;;;;;;;;;5112677;28;19931;-42
2023/12/26 11:46:39;;;;;;;;;;;;;;;;;;5112161;28;20556;-44
2023/12/26 11:49:05;;;;;;;;;;;;;;;;;;5112535;28;19935;-42
2023/12/26 11:51:31;;;;;;;;;;;;;;;;;;5112781;28;20402;-43
2023/12/26 11:53:57;;;;;;;;;;;;;;;;;;5112755;28;20424;-44
2023/12/26 11:56:23;;;;;;;;;;;;;;;;;;5112885;28;20007;-44
2023/12/26 11:58:50;;;;;;;;;;;;;;;;;;5113163;28;19924;-42
2023/12/26 12:01:16;;;;;;;;;;;;;;;;;;5112852;28;20036;-45
2023/12/26 12:03:42;;;;;;;;;;;;;;;;;;5112811;28;19973;-45
2023/12/26 12:06:08;;;;;;;;;;;;;;;;;;5113111;28;20436;-45
2023/12/26 12:08:34;;;;;;;;;;;;;;;;;;5112947;28;19924;-42
2023/12/26 12:11:01;;;;;;;;;;;;;;;;;;5112658;28;19923;-42
2023/12/26 12:13:27;;;;;;;;;;;;;;;;;;5113008;28;20010;-45
2023/12/26 12:15:53;;;;;;;;;;;;;;;;;;5112732;28;20325;-43
2023/12/26 12:18:19;;;;;;;;;;;;;;;;;;5113044;28;19923;-47
2023/12/26 12:20:45;;;;;;;;;;;;;;;;;;5116731;28;19971;-43
2023/12/26 12:23:11;;;;;;;;;;;;;;;;;;5116638;28;19923;-44
2023/12/26 12:25:37;;;;;;;;;;;;;;;;;;5116643;28;20353;-45
2023/12/26 12:28:04;;;;;;;;;;;;;;;;;;5116746;27;19946;-46
2023/12/26 12:30:30;;;;;;;;;;;;;;;;;;5116770;28;19924;-44
2023/12/26 12:32:56;;;;;;;;;;;;;;;;;;5116217;28;20026;-47
2023/12/26 12:35:23;;;;;;;;;;;;;;;;;;5116297;28;19924;-46
2023/12/26 12:37:49;;;;;;;;;;;;;;;;;;5116394;28;19923;-42
2023/12/26 12:40:15;;;;;;;;;;;;;;;;;;5116156;27;20431;-46
2023/12/26 12:42:42;;;;;;;;;;;;;;;;;;5115942;28;19923;-45
2023/12/26 12:45:08;;;;;;;;;;;;;;;;;;5115661;28;19963;-42
2023/12/26 12:47:34;;;;;;;;;;;;;;;;;;5116081;28;20370;-44
2023/12/26 12:50:00;;;;;;;;;;;;;;;;;;5115834;28;19931;-45
2023/12/26 12:52:26;;;;;;;;;;;;;;;;;;5116286;28;19924;-44
2023/12/26 12:54:53;;;;;;;;;;;;;;;;;;5116141;28;19930;-42
2023/12/26 12:57:19;;;;;;;;;;;;;;;;;;5116249;28;19976;-42
2023/12/26 12:59:45;;;;;;;;;;;;;;;;;;5116187;28;19978;-45
2023/12/26 13:02:12;;;;;;;;;;;;;;;;;;5116071;28;19930;-43
2023/12/26 13:04:38;;;;;;;;;;;;;;;;;;5115449;28;19923;-45
2023/12/26 13:07:04;;;;;;;;;;;;;;;;;;5115847;28;19950;-45
2023/12/26 13:09:30;;;;;;;;;;;;;;;;;;5115164;28;20350;-42
2023/12/26 13:11:56;;;;;;;;;;;;;;;;;;5115596;28;19924;-43
2023/12/26 13:14:22;;;;;;;;;;;;;;;;;;5115555;28;19927;-42
2023/12/26 13:16:51;;;;;;;;;;;;;;;;;;5115584;28;20260;-42
2023/12/26 13:19:17;;;;;;;;;;;;;;;;;;5115641;28;19971;-45
2023/12/26 13:21:43;;;;;;;;;;;;;;;;;;5115685;28;19924;-42
2023/12/26 13:24:09;;;;;;;;;;;;;;;;;;5115531;28;20425;-45
2023/12/26 13:26:36;;;;;;;;;;;;;;;;;;5115551;28;19934;-41
2023/12/26 13:29:02;;;;;;;;;;;;;;;;;;5115579;28;20044;-45
2023/12/26 13:31:28;;;;;;;;;;;;;;;;;;5114144;28;19927;-42
2023/12/26 13:33:54;;;;;;;;;;;;;;;;;;5114929;28;19930;-42
2023/12/26 13:36:20;;;;;;;;;;;;;;;;;;5115100;28;19931;-43
2023/12/26 13:38:47;;;;;;;;;;;;;;;;;;5114964;28;20006;-44
2023/12/26 13:41:13;;;;;;;;;;;;;;;;;;5114957;28;19930;-42
2023/12/26 13:43:39;;;;;;;;;;;;;;;;;;5115042;28;19924;-43
2023/12/26 13:46:05;;;;;;;;;;;;;;;;;;5114234;28;20028;-43
2023/12/26 13:48:31;;;;;;;;;;;;;;;;;;5115019;28;19923;-44
2023/12/26 13:50:58;;;;;;;;;;;;;;;;;;5114606;28;19924;-44
2023/12/26 13:53:24;;;;;;;;;;;;;;;;;;5115004;28;20011;-43
2023/12/26 13:55:50;;;;;;;;;;;;;;;;;;5115087;27;20360;-45
2023/12/26 13:58:16;;;;;;;;;;;;;;;;;;5115107;28;20399;-45
2023/12/26 14:00:42;;;;;;;;;;;;;;;;;;5114880;28;19923;-45
2023/12/26 14:03:08;;;;;;;;;;;;;;;;;;5114941;28;19928;-43
2023/12/26 14:05:35;;;;;;;;;;;;;;;;;;5114500;28;20022;-45
2023/12/26 14:08:01;;;;;;;;;;;;;;;;;;5114311;28;20271;-43
2023/12/26 14:10:28;;;;;;;;;;;;;;;;;;5114219;28;19931;-41
2023/12/26 14:12:54;;;;;;;;;;;;;;;;;;5114695;28;19924;-45
2023/12/26 14:15:21;;;;;;;;;;;;;;;;;;5114158;28;19927;-43
2023/12/26 14:17:47;;;;;;;;;;;;;;;;;;5114672;28;20359;-42
2023/12/26 14:20:13;;;;;;;;;;;;;;;;;;5114560;28;19954;-43
2023/12/26 14:22:39;;;;;;;;;;;;;;;;;;5114551;28;19932;-42
2023/12/26 14:25:05;;;;;;;;;;;;;;;;;;5114177;28;20325;-42
2023/12/26 14:27:32;;;;;;;;;;;;;;;;;;5114425;28;19931;-43
2023/12/26 14:29:58;;;;;;;;;;;;;;;;;;5114305;28;19923;-42
2023/12/26 14:32:24;;;;;;;;;;;;;;;;;;5114146;28;19930;-43
2023/12/26 14:34:50;;;;;;;;;;;;;;;;;;5113874;28;19930;-41
2023/12/26 14:37:16;;;;;;;;;;;;;;;;;;5113911;28;19931;-46
2023/12/26 14:39:43;;;;;;;;;;;;;;;;;;5113873;28;20322;-42
2023/12/26 14:42:09;;;;;;;;;;;;;;;;;;5113657;28;19927;-43
2023/12/26 14:44:35;;;;;;;;;;;;;;;;;;5113295;28;20371;-43
2023/12/26 14:47:01;;;;;;;;;;;;;;;;;;5113535;28;20503;-42
2023/12/26 14:49:27;;;;;;;;;;;;;;;;;;5113207;28;19977;-42
2023/12/26 14:51:54;;;;;;;;;;;;;;;;;;5113665;28;19928;-41
2023/12/26 14:54:20;;;;;;;;;;;;;;;;;;5113890;28;19973;-42
2023/12/26 14:56:46;;;;;;;;;;;;;;;;;;5113595;28;19927;-42
2023/12/26 14:59:12;;;;;;;;;;;;;;;;;;5114035;28;19930;-41
2023/12/26 15:01:38;;;;;;;;;;;;;;;;;;5113892;28;19972;-40
2023/12/26 15:04:05;;;;;;;;;;;;;;;;;;5113122;28;19932;-42
2023/12/26 15:06:31;;;;;;;;;;;;;;;;;;5113638;28;19931;-42
2023/12/26 15:08:58;;;;;;;;;;;;;;;;;;5112897;28;19951;-41
2023/12/26 15:11:24;;;;;;;;;;;;;;;;;;5113057;28;19931;-42
2023/12/26 15:13:50;;;;;;;;;;;;;;;;;;5113237;28;19973;-42
2023/12/26 15:16:26;;;;;;;;;;;;;;;;;;5113033;28;20033;-40
2023/12/26 15:18:52;;;;;;;;;;;;;;;;;;5113182;28;19924;-41
2023/12/26 15:21:18;;;;;;;;;;;;;;;;;;5113285;28;20002;-41
2023/12/26 15:23:49;;;;;;;;;;;;;;;;;;5113249;28;20011;-42
2023/12/26 15:26:15;;;;;;;;;;;;;;;;;;5112844;28;20356;-40
2023/12/26 15:28:41;;;;;;;;;;;;;;;;;;5112666;28;19924;-41
2023/12/26 15:31:07;;;;;;;;;;;;;;;;;;5113366;28;20063;-42
2023/12/26 15:33:34;;;;;;;;;;;;;;;;;;5112835;28;20674;-42
2023/12/26 15:36:00;;;;;;;;;;;;;;;;;;5113021;28;19924;-41
2023/12/26 15:38:26;;;;;;;;;;;;;;;;;;5112956;28;19988;-42
2023/12/26 15:40:53;;;;;;;;;;;;;;;;;;5113073;28;19924;-41
2023/12/26 15:43:19;;;;;;;;;;;;;;;;;;5113364;28;19924;-44
2023/12/26 15:45:47;;;;;;;;;;;;;;;;;;5112239;28;19949;-41
2023/12/26 15:48:13;;;;;;;;;;;;;;;;;;5113405;28;19924;-42
2023/12/26 15:50:40;;;;;;;;;;;;;;;;;;5113221;28;19976;-41
2023/12/26 15:53:06;;;;;;;;;;;;;;;;;;5113111;28;19946;-40
2023/12/26 15:55:32;;;;;;;;;;;;;;;;;;5116673;28;20372;-41
2023/12/26 15:57:58;;;;;;;;;;;;;;;;;;5117303;28;20026;-41
2023/12/26 16:00:24;;;;;;;;;;;;;;;;;;5117171;28;19946;-41
2023/12/26 16:02:50;;;;;;;;;;;;;;;;;;5117142;28;20421;-45
2023/12/26 16:05:16;;;;;;;;;;;;;;;;;;5116672;28;19924;-41
2023/12/26 16:07:43;;;;;;;;;;;;;;;;;;5116741;27;19972;-44
2023/12/26 16:10:09;;;;;;;;;;;;;;;;;;5115899;28;20291;-43
2023/12/26 16:12:38;;;;;;;;;;;;;;;;;;5117055;28;19927;-40
2023/12/26 16:15:04;;;;;;;;;;;;;;;;;;5116616;28;20355;-40
2023/12/26 16:17:30;;;;;;;;;;;;;;;;;;5116970;28;19931;-41
2023/12/26 16:19:56;;;;;;;;;;;;;;;;;;5117080;28;19973;-43
2023/12/26 16:22:22;;;;;;;;;;;;;;;;;;5116921;28;20026;-41
2023/12/26 16:24:48;;;;;;;;;;;;;;;;;;5116766;28;19924;-42
2023/12/26 16:27:19;;;;;;;;;;;;;;;;;;5116625;27;19977;-42
2023/12/26 16:29:46;;;;;;;;;;;;;;;;;;5116632;28;19924;-41
2023/12/26 16:32:14;;;;;;;;;;;;;;;;;;5116682;28;19928;-41
2023/12/26 16:34:40;;;;;;;;;;;;;;;;;;5116636;28;19976;-42
2023/12/26 16:37:06;;;;;;;;;;;;;;;;;;5116491;28;19930;-43
2023/12/26 16:39:32;;;;;;;;;;;;;;;;;;5115622;28;19928;-43